createdAt,value
2023-03-06T00:03:58.522Z,547.92157
2023-03-06T00:09:00.218Z,560
2023-03-06T00:14:01.821Z,585.66667
2023-03-06T00:19:03.573Z,579.05155
2023-03-06T00:24:05.252Z,560
2023-03-06T00:29:06.873Z,553.90099
2023-03-06T00:34:08.656Z,572.57143
2023-03-06T00:39:10.587Z,572.57143
2023-03-06T00:44:12.425Z,536.30769
2023-03-06T00:49:14.172Z,542.05825
2023-03-06T00:54:15.799Z,530.66667
2023-03-06T00:59:17.454Z,542.05825
2023-03-06T01:04:19.206Z,525.13208
2023-03-06T01:09:20.794Z,519.70093
2023-03-06T01:14:22.430Z,525.13208
2023-03-06T01:19:24.144Z,498.95495
2023-03-06T01:24:25.896Z,494
2023-03-06T01:29:27.692Z,475.03448
2023-03-06T01:34:29.534Z,489.13274
2023-03-06T01:39:31.150Z,509.13761
2023-03-06T01:44:33.030Z,514.37037
2023-03-06T01:49:34.754Z,484.35088
2023-03-06T01:54:36.381Z,444.81301
2023-03-06T01:59:38.213Z,453.09091
2023-03-06T02:04:40.501Z,457.33333
2023-03-06T02:09:42.201Z,440.77419
2023-03-06T02:14:43.837Z,461.64706
2023-03-06T02:19:45.557Z,374.76923
2023-03-06T02:24:47.173Z,432.88889
2023-03-06T02:29:49.209Z,414.22901
2023-03-06T02:34:50.970Z,407.15789
2023-03-06T02:39:52.609Z,421.51938
2023-03-06T02:44:54.302Z,380.87943
2023-03-06T02:49:56.047Z,387.16547
2023-03-06T02:54:57.696Z,363.04762
2023-03-06T02:59:59.292Z,374.76923
2023-03-06T03:05:01.020Z,336.35669
2023-03-06T03:10:02.613Z,338.87179
2023-03-06T03:15:04.850Z,363.04762
2023-03-06T03:20:06.489Z,368.82759
2023-03-06T03:25:08.168Z,341.41935
2023-03-06T03:30:09.845Z,384
2023-03-06T03:35:11.652Z,432.88889
2023-03-06T03:40:13.265Z,396.94118
2023-03-06T03:45:14.892Z,410.66667
2023-03-06T03:50:16.445Z,390.37681
2023-03-06T03:55:18.310Z,377.80282
2023-03-06T04:00:20.050Z,400.2963
2023-03-06T04:05:21.853Z,380.87943
2023-03-06T04:10:23.644Z,360.21622
2023-03-06T04:15:25.369Z,384
2023-03-06T04:20:27.069Z,326.6087
2023-03-06T04:25:28.740Z,354.66667
2023-03-06T04:30:30.350Z,349.26316
2023-03-06T04:35:31.975Z,390.37681
2023-03-06T04:40:33.660Z,371.77778
2023-03-06T04:45:35.435Z,429.03937
2023-03-06T04:50:37.055Z,432.88889
2023-03-06T04:55:38.680Z,393.63504
2023-03-06T05:00:40.362Z,396.94118
2023-03-06T05:05:42.216Z,371.77778
2023-03-06T05:10:43.893Z,319.60976
2023-03-06T05:15:45.787Z,387.16547
2023-03-06T05:20:47.500Z,380.87943
2023-03-06T05:25:49.170Z,410.66667
2023-03-06T05:30:50.802Z,393.63504
2023-03-06T05:35:52.469Z,436.8
2023-03-06T05:40:54.150Z,400.2963
2023-03-06T05:45:55.811Z,425.25
2023-03-06T05:50:57.575Z,440.77419
2023-03-06T05:55:59.183Z,440.77419
2023-03-06T06:01:00.869Z,393.63504
2023-03-06T06:06:02.549Z,387.16547
2023-03-06T06:11:04.176Z,440.77419
2023-03-06T06:16:06.006Z,400.2963
2023-03-06T06:21:07.774Z,432.88889
2023-03-06T06:26:09.492Z,407.15789
2023-03-06T06:31:11.216Z,436.8
2023-03-06T06:36:12.903Z,432.88889
2023-03-06T06:41:46.066Z,448.91803
2023-03-06T06:52:20.122Z,453.09091
2023-03-06T06:57:21.790Z,421.51938
2023-03-06T07:02:23.446Z,414.22901
2023-03-06T07:07:26.528Z,393.63504
2023-03-06T07:12:28.313Z,407.15789
2023-03-06T07:17:29.983Z,410.66667
2023-03-06T07:22:38.695Z,421.51938
2023-03-06T07:27:52.806Z,421.51938
2023-03-06T07:32:55.365Z,410.66667
2023-03-06T07:37:56.998Z,387.16547
2023-03-06T07:43:13.017Z,417.84615
2023-03-06T07:48:20.183Z,393.63504
2023-03-06T07:53:21.862Z,417.84615
2023-03-06T07:58:23.522Z,384
2023-03-06T08:03:25.121Z,377.80282
2023-03-06T08:08:26.792Z,377.80282
2023-03-06T08:13:28.440Z,377.80282
2023-03-06T08:18:30.034Z,387.16547
2023-03-06T08:23:31.752Z,390.37681
2023-03-06T08:28:33.398Z,384
2023-03-06T08:33:35.070Z,393.63504
2023-03-06T08:38:36.691Z,351.94702
2023-03-06T08:43:38.617Z,384
2023-03-06T08:48:40.313Z,380.87943
2023-03-06T08:53:43.823Z,390.37681
2023-03-06T08:58:45.866Z,384
2023-03-06T09:03:47.600Z,360.21622
2023-03-06T09:08:49.259Z,360.21622
2023-03-06T09:13:50.865Z,380.87943
2023-03-06T09:18:52.520Z,368.82759
2023-03-06T09:23:54.252Z,374.76923
2023-03-06T09:28:55.824Z,363.04762
2023-03-06T09:33:57.440Z,360.21622
2023-03-06T09:38:59.084Z,371.77778
2023-03-06T09:44:00.729Z,360.21622
2023-03-06T09:49:02.486Z,363.04762
2023-03-06T09:54:04.354Z,365.91781
2023-03-06T09:59:05.974Z,363.04762
2023-03-06T10:04:07.662Z,312.86228
2023-03-06T10:09:09.324Z,344
2023-03-06T10:14:11.208Z,341.41935
2023-03-06T10:19:12.891Z,346.61438
2023-03-06T10:24:14.612Z,329
2023-03-06T10:29:16.226Z,321.91411
2023-03-06T10:34:17.858Z,333.87342
2023-03-06T10:39:19.472Z,333.87342
2023-03-06T10:44:21.082Z,329
2023-03-06T10:49:22.705Z,319.60976
2023-03-06T10:54:24.476Z,312.86228
2023-03-06T10:59:26.131Z,331.42138
2023-03-06T11:04:27.863Z,338.87179
2023-03-06T11:09:29.611Z,349.26316
2023-03-06T11:14:31.213Z,351.94702
2023-03-06T11:19:32.916Z,341.41935
2023-03-06T11:24:34.563Z,341.41935
2023-03-06T11:29:38.457Z,351.94702
2023-03-06T11:34:40.400Z,344
2023-03-06T11:39:42.010Z,357.42282
2023-03-06T11:44:43.640Z,341.41935
2023-03-06T11:49:45.345Z,336.35669
2023-03-06T11:54:46.986Z,324.24691
2023-03-06T11:59:48.770Z,321.91411
2023-03-06T12:04:50.462Z,331.42138
2023-03-06T12:09:52.096Z,336.35669
2023-03-06T12:14:53.722Z,349.26316
2023-03-06T12:19:55.425Z,351.94702
2023-03-06T12:24:57.090Z,349.26316
2023-03-06T12:29:58.697Z,324.24691
2023-03-06T12:35:00.402Z,310.66667
2023-03-06T12:40:02.073Z,321.91411
2023-03-06T12:45:03.760Z,324.24691
2023-03-06T12:50:05.353Z,329
2023-03-06T12:55:07.118Z,341.41935
2023-03-06T13:00:08.753Z,341.41935
2023-03-06T13:05:10.401Z,329
2023-03-06T13:10:12.186Z,321.91411
2023-03-06T13:15:13.759Z,321.91411
2023-03-06T13:20:15.509Z,321.91411
2023-03-06T13:25:17.144Z,365.91781
2023-03-06T13:30:18.747Z,341.41935
2023-03-06T13:35:20.395Z,380.87943
2023-03-06T13:40:22.038Z,371.77778
2023-03-06T13:45:23.634Z,357.42282
2023-03-06T13:50:25.495Z,368.82759
2023-03-06T13:55:27.108Z,338.87179
2023-03-06T14:00:28.825Z,336.35669
2023-03-06T14:05:30.432Z,310.66667
2023-03-06T14:10:32.130Z,321.91411
2023-03-06T14:15:34.036Z,298.02299
2023-03-06T14:20:35.702Z,302.13953
2023-03-06T14:25:37.320Z,302.13953
2023-03-06T14:30:39.004Z,321.91411
2023-03-06T14:35:40.632Z,292.0226
2023-03-06T14:40:42.321Z,290.06742
2023-03-06T14:45:43.957Z,319.60976
2023-03-06T14:50:45.608Z,336.35669
2023-03-06T14:55:47.281Z,308.49704
2023-03-06T15:00:48.980Z,280.61202
2023-03-06T15:05:50.658Z,302.13953
2023-03-06T15:10:52.264Z,306.35294
2023-03-06T15:15:53.949Z,308.49704
2023-03-06T15:20:55.634Z,333.87342
2023-03-06T15:25:57.504Z,354.66667
2023-03-06T15:30:59.343Z,387.16547
2023-03-06T15:36:01.030Z,387.16547
2023-03-06T15:41:02.657Z,387.16547
2023-03-06T15:46:04.415Z,357.42282
2023-03-06T15:51:06.204Z,387.16547
2023-03-06T15:56:07.870Z,377.80282
2023-03-06T16:01:09.634Z,393.63504
2023-03-06T16:06:11.475Z,387.16547
2023-03-06T16:11:13.129Z,403.70149
2023-03-06T16:16:14.939Z,410.66667
2023-03-06T16:21:16.654Z,436.8
2023-03-06T16:26:18.323Z,425.25
2023-03-06T16:31:19.993Z,466.0339
2023-03-06T16:36:21.649Z,440.77419
2023-03-06T16:41:23.265Z,436.8
2023-03-06T16:46:24.949Z,440.77419
2023-03-06T16:51:26.709Z,440.77419
2023-03-06T16:56:28.370Z,444.81301
2023-03-06T17:01:30.128Z,466.0339
2023-03-06T17:06:31.861Z,466.0339
2023-03-06T17:11:33.765Z,461.64706
2023-03-06T17:16:35.402Z,489.13274
2023-03-06T17:21:37.220Z,0
2023-03-06T17:26:39.029Z,547.92157
2023-03-06T17:31:40.659Z,0
2023-03-06T17:36:42.359Z,525.13208
2023-03-06T17:41:46.300Z,0
2023-03-06T17:46:48.414Z,0
2023-03-06T17:51:50.190Z,0
2023-03-06T17:56:52.067Z,0
2023-03-06T18:01:53.793Z,0
2023-03-06T18:06:55.410Z,599.31915
2023-03-06T18:11:57.062Z,652.04598
2023-03-06T18:16:58.671Z,0
2023-03-06T18:22:00.296Z,620.92308
2023-03-06T18:27:02.004Z,0
2023-03-06T18:32:03.852Z,0
2023-03-06T18:37:05.716Z,0
2023-03-06T18:42:07.346Z,0
2023-03-06T18:47:08.945Z,0
2023-03-06T18:52:10.892Z,0
2023-03-06T18:57:12.722Z,0
2023-03-06T19:02:14.360Z,0
2023-03-06T19:07:16.216Z,0
2023-03-06T19:12:17.831Z,0
2023-03-06T19:17:19.539Z,0
2023-03-06T19:22:21.184Z,0
2023-03-06T19:27:22.837Z,0
2023-03-06T19:32:24.568Z,0
2023-03-06T19:37:26.204Z,0
2023-03-06T19:42:27.822Z,0
2023-03-06T19:47:29.438Z,0
2023-03-06T19:52:31.280Z,0
2023-03-06T19:57:33.080Z,0
2023-03-06T20:02:34.755Z,0
2023-03-06T20:07:36.513Z,0
2023-03-06T20:12:38.174Z,0
2023-03-06T20:17:39.856Z,0
2023-03-06T20:22:41.756Z,0
2023-03-06T20:27:43.431Z,0
2023-03-06T20:32:45.364Z,0
2023-03-06T20:37:46.980Z,0
2023-03-06T20:42:48.633Z,0
2023-03-06T20:47:50.348Z,0
2023-03-06T20:52:52.008Z,0
2023-03-06T20:57:53.601Z,0
2023-03-06T21:02:55.358Z,0
2023-03-06T21:07:56.993Z,0
2023-03-06T21:12:58.596Z,0
2023-03-06T21:18:00.375Z,0
2023-03-06T21:23:02.112Z,0
2023-03-06T21:28:03.965Z,0
2023-03-06T21:33:05.648Z,0
2023-03-06T21:38:07.456Z,0
2023-03-06T21:43:09.138Z,0
2023-03-06T21:48:10.990Z,0
2023-03-06T21:53:12.674Z,0
2023-03-06T21:58:14.595Z,0
2023-03-06T22:03:16.602Z,0
2023-03-06T22:08:18.123Z,0
2023-03-06T22:13:19.737Z,0
2023-03-06T22:18:21.361Z,0
2023-03-06T22:23:23.186Z,0
2023-03-06T22:28:24.856Z,0
2023-03-06T22:33:26.550Z,0
2023-03-06T22:38:28.213Z,0
2023-03-06T22:43:30.053Z,0
2023-03-06T22:48:31.958Z,0
2023-03-06T22:53:33.618Z,0
2023-03-06T22:58:35.274Z,0
2023-03-06T23:03:36.906Z,0
2023-03-06T23:08:38.548Z,0
2023-03-06T23:13:40.284Z,0
2023-03-06T23:18:41.927Z,0
2023-03-06T23:23:43.590Z,0
2023-03-06T23:28:45.239Z,0
2023-03-06T23:33:47.009Z,0
2023-03-06T23:38:48.632Z,0
2023-03-06T23:43:50.325Z,0
2023-03-06T23:48:51.938Z,0
2023-03-06T23:53:54.328Z,0
2023-03-06T23:58:55.949Z,0
